sensor_id;sensor_type;location;lat;lon;timestamp;P1;durP1;ratioP1;P2;durP2;ratioP2
19038;SDS011;9652;49.014;12.052;2023-05-07T00:02:23;2.50;;;2.30;;
19038;SDS011;9652;49.014;12.052;2023-05-07T00:04:51;2.80;;;2.60;;
19038;SDS011;9652;49.014;12.052;2023-05-07T00:07:18;2.53;;;2.37;;
19038;SDS011;9652;49.014;12.052;2023-05-07T00:09:45;2.83;;;2.63;;
19038;SDS011;9652;49.014;12.052;2023-05-07T00:12:12;2.70;;;2.50;;
19038;SDS011;9652;49.014;12.052;2023-05-07T00:14:39;2.30;;;2.10;;
19038;SDS011;9652;49.014;12.052;2023-05-07T00:17:07;2.97;;;2.47;;
19038;SDS011;9652;49.014;12.052;2023-05-07T00:19:34;6.30;;;2.40;;
19038;SDS011;9652;49.014;12.052;2023-05-07T00:22:02;2.83;;;2.63;;
19038;SDS011;9652;49.014;12.052;2023-05-07T00:24:29;2.97;;;2.73;;
19038;SDS011;9652;49.014;12.052;2023-05-07T00:26:56;2.80;;;2.60;;
19038;SDS011;9652;49.014;12.052;2023-05-07T00:29:24;2.77;;;2.23;;
19038;SDS011;9652;49.014;12.052;2023-05-07T00:31:51;2.87;;;2.63;;
19038;SDS011;9652;49.014;12.052;2023-05-07T00:34:19;2.80;;;2.60;;
19038;SDS011;9652;49.014;12.052;2023-05-07T00:36:47;2.70;;;2.50;;
19038;SDS011;9652;49.014;12.052;2023-05-07T00:39:16;2.63;;;2.43;;
19038;SDS011;9652;49.014;12.052;2023-05-07T00:41:43;2.37;;;2.20;;
19038;SDS011;9652;49.014;12.052;2023-05-07T00:44:10;2.77;;;2.57;;
19038;SDS011;9652;49.014;12.052;2023-05-07T00:46:37;2.77;;;2.50;;
19038;SDS011;9652;49.014;12.052;2023-05-07T00:49:04;2.70;;;2.50;;
19038;SDS011;9652;49.014;12.052;2023-05-07T00:51:32;2.83;;;2.63;;
19038;SDS011;9652;49.014;12.052;2023-05-07T00:54:01;3.70;;;2.43;;
19038;SDS011;9652;49.014;12.052;2023-05-07T00:56:31;2.80;;;2.60;;
19038;SDS011;9652;49.014;12.052;2023-05-07T00:58:58;3.10;;;2.90;;
19038;SDS011;9652;49.014;12.052;2023-05-07T01:01:27;2.93;;;2.70;;
19038;SDS011;9652;49.014;12.052;2023-05-07T01:03:54;2.80;;;2.60;;
19038;SDS011;9652;49.014;12.052;2023-05-07T01:06:22;2.47;;;2.27;;
19038;SDS011;9652;49.014;12.052;2023-05-07T01:08:52;3.17;;;2.90;;
19038;SDS011;9652;49.014;12.052;2023-05-07T01:11:21;2.40;;;2.20;;
19038;SDS011;9652;49.014;12.052;2023-05-07T01:13:51;2.53;;;2.33;;
19038;SDS011;9652;49.014;12.052;2023-05-07T01:16:19;2.60;;;2.40;;
19038;SDS011;9652;49.014;12.052;2023-05-07T01:18:47;2.87;;;2.67;;
19038;SDS011;9652;49.014;12.052;2023-05-07T01:21:15;2.43;;;2.23;;
19038;SDS011;9652;49.014;12.052;2023-05-07T01:23:46;2.73;;;2.53;;
19038;SDS011;9652;49.014;12.052;2023-05-07T01:26:14;3.63;;;2.60;;
19038;SDS011;9652;49.014;12.052;2023-05-07T01:28:44;3.30;;;2.87;;
19038;SDS011;9652;49.014;12.052;2023-05-07T01:31:11;3.07;;;2.50;;
19038;SDS011;9652;49.014;12.052;2023-05-07T01:33:40;3.40;;;3.10;;
19038;SDS011;9652;49.014;12.052;2023-05-07T01:36:10;3.03;;;2.80;;
19038;SDS011;9652;49.014;12.052;2023-05-07T01:38:39;3.10;;;2.90;;
19038;SDS011;9652;49.014;12.052;2023-05-07T01:41:09;3.50;;;3.20;;
19038;SDS011;9652;49.014;12.052;2023-05-07T01:43:38;3.50;;;3.20;;
19038;SDS011;9652;49.014;12.052;2023-05-07T01:46:08;2.80;;;2.50;;
19038;SDS011;9652;49.014;12.052;2023-05-07T01:48:37;5.63;;;2.87;;
19038;SDS011;9652;49.014;12.052;2023-05-07T01:51:04;3.40;;;3.10;;
19038;SDS011;9652;49.014;12.052;2023-05-07T01:53:35;3.33;;;3.03;;
19038;SDS011;9652;49.014;12.052;2023-05-07T01:56:02;3.17;;;2.87;;
19038;SDS011;9652;49.014;12.052;2023-05-07T01:58:33;4.17;;;2.70;;
19038;SDS011;9652;49.014;12.052;2023-05-07T02:01:01;3.07;;;2.77;;
19038;SDS011;9652;49.014;12.052;2023-05-07T02:03:28;2.77;;;2.57;;
19038;SDS011;9652;49.014;12.052;2023-05-07T02:06:04;2.30;;;2.10;;
19038;SDS011;9652;49.014;12.052;2023-05-07T02:08:34;3.00;;;2.80;;
19038;SDS011;9652;49.014;12.052;2023-05-07T02:11:01;2.83;;;2.60;;
19038;SDS011;9652;49.014;12.052;2023-05-07T02:13:29;3.13;;;2.83;;
19038;SDS011;9652;49.014;12.052;2023-05-07T02:16:01;3.37;;;2.47;;
19038;SDS011;9652;49.014;12.052;2023-05-07T02:18:28;2.73;;;2.53;;
19038;SDS011;9652;49.014;12.052;2023-05-07T02:20:55;2.60;;;2.40;;
19038;SDS011;9652;49.014;12.052;2023-05-07T02:23:22;2.90;;;2.70;;
19038;SDS011;9652;49.014;12.052;2023-05-07T02:25:50;2.67;;;2.47;;
19038;SDS011;9652;49.014;12.052;2023-05-07T02:28:17;3.27;;;2.47;;
19038;SDS011;9652;49.014;12.052;2023-05-07T02:30:57;4.27;;;2.83;;
19038;SDS011;9652;49.014;12.052;2023-05-07T02:33:25;3.10;;;2.80;;
19038;SDS011;9652;49.014;12.052;2023-05-07T02:35:53;2.93;;;2.70;;
19038;SDS011;9652;49.014;12.052;2023-05-07T02:38:20;3.50;;;3.20;;
19038;SDS011;9652;49.014;12.052;2023-05-07T02:40:47;2.57;;;2.37;;
19038;SDS011;9652;49.014;12.052;2023-05-07T02:43:15;3.20;;;2.90;;
19038;SDS011;9652;49.014;12.052;2023-05-07T02:45:45;4.87;;;3.30;;
19038;SDS011;9652;49.014;12.052;2023-05-07T02:48:14;5.10;;;3.40;;
19038;SDS011;9652;49.014;12.052;2023-05-07T02:50:41;5.63;;;3.10;;
19038;SDS011;9652;49.014;12.052;2023-05-07T02:53:11;3.10;;;2.87;;
19038;SDS011;9652;49.014;12.052;2023-05-07T02:55:38;3.00;;;2.80;;
19038;SDS011;9652;49.014;12.052;2023-05-07T02:58:05;3.33;;;3.13;;
19038;SDS011;9652;49.014;12.052;2023-05-07T03:00:34;3.37;;;3.10;;
19038;SDS011;9652;49.014;12.052;2023-05-07T03:03:29;3.87;;;3.47;;
19038;SDS011;9652;49.014;12.052;2023-05-07T03:05:56;3.17;;;2.97;;
19038;SDS011;9652;49.014;12.052;2023-05-07T03:08:24;2.97;;;2.73;;
19038;SDS011;9652;49.014;12.052;2023-05-07T03:10:51;3.40;;;2.93;;
19038;SDS011;9652;49.014;12.052;2023-05-07T03:13:18;4.73;;;3.43;;
19038;SDS011;9652;49.014;12.052;2023-05-07T03:15:46;3.10;;;2.80;;
19038;SDS011;9652;49.014;12.052;2023-05-07T03:18:13;3.13;;;2.67;;
19038;SDS011;9652;49.014;12.052;2023-05-07T03:20:41;3.27;;;3.07;;
19038;SDS011;9652;49.014;12.052;2023-05-07T03:23:08;4.00;;;3.63;;
19038;SDS011;9652;49.014;12.052;2023-05-07T03:25:35;3.50;;;3.20;;
19038;SDS011;9652;49.014;12.052;2023-05-07T03:28:03;3.87;;;3.57;;
19038;SDS011;9652;49.014;12.052;2023-05-07T03:30:38;3.60;;;3.30;;
19038;SDS011;9652;49.014;12.052;2023-05-07T03:33:05;3.97;;;3.57;;
19038;SDS011;9652;49.014;12.052;2023-05-07T03:35:33;3.40;;;3.10;;
19038;SDS011;9652;49.014;12.052;2023-05-07T03:38:02;3.97;;;3.57;;
19038;SDS011;9652;49.014;12.052;2023-05-07T03:40:32;3.83;;;3.53;;
19038;SDS011;9652;49.014;12.052;2023-05-07T03:43:00;3.70;;;3.40;;
19038;SDS011;9652;49.014;12.052;2023-05-07T03:45:30;3.63;;;3.33;;
19038;SDS011;9652;49.014;12.052;2023-05-07T03:48:06;3.70;;;3.40;;
19038;SDS011;9652;49.014;12.052;2023-05-07T03:50:33;3.63;;;3.33;;
19038;SDS011;9652;49.014;12.052;2023-05-07T03:53:02;3.57;;;3.27;;
19038;SDS011;9652;49.014;12.052;2023-05-07T03:55:35;3.73;;;3.43;;
19038;SDS011;9652;49.014;12.052;2023-05-07T03:58:02;3.23;;;3.03;;
19038;SDS011;9652;49.014;12.052;2023-05-07T04:00:29;3.67;;;3.37;;
19038;SDS011;9652;49.014;12.052;2023-05-07T04:02:59;3.53;;;3.23;;
19038;SDS011;9652;49.014;12.052;2023-05-07T04:05:29;3.80;;;3.50;;
19038;SDS011;9652;49.014;12.052;2023-05-07T04:08:00;3.70;;;3.40;;
19038;SDS011;9652;49.014;12.052;2023-05-07T04:10:37;4.73;;;3.30;;
19038;SDS011;9652;49.014;12.052;2023-05-07T04:13:08;4.87;;;3.33;;
19038;SDS011;9652;49.014;12.052;2023-05-07T04:15:36;3.80;;;3.27;;
19038;SDS011;9652;49.014;12.052;2023-05-07T04:18:07;3.67;;;3.37;;
19038;SDS011;9652;49.014;12.052;2023-05-07T04:20:34;4.40;;;4.00;;
19038;SDS011;9652;49.014;12.052;2023-05-07T04:23:05;3.50;;;3.20;;
19038;SDS011;9652;49.014;12.052;2023-05-07T04:25:32;3.60;;;3.30;;
19038;SDS011;9652;49.014;12.052;2023-05-07T04:28:07;3.83;;;3.50;;
19038;SDS011;9652;49.014;12.052;2023-05-07T04:30:34;3.97;;;3.60;;
19038;SDS011;9652;49.014;12.052;2023-05-07T04:33:04;4.50;;;3.30;;
19038;SDS011;9652;49.014;12.052;2023-05-07T04:35:33;4.00;;;3.60;;
19038;SDS011;9652;49.014;12.052;2023-05-07T04:38:02;3.60;;;3.30;;
19038;SDS011;9652;49.014;12.052;2023-05-07T04:40:31;3.80;;;3.50;;
19038;SDS011;9652;49.014;12.052;2023-05-07T04:43:00;3.30;;;3.03;;
19038;SDS011;9652;49.014;12.052;2023-05-07T04:45:31;4.20;;;3.80;;
19038;SDS011;9652;49.014;12.052;2023-05-07T04:47:58;3.50;;;3.20;;
19038;SDS011;9652;49.014;12.052;2023-05-07T04:50:26;3.83;;;3.43;;
19038;SDS011;9652;49.014;12.052;2023-05-07T04:52:58;6.17;;;3.90;;
19038;SDS011;9652;49.014;12.052;2023-05-07T04:55:26;4.00;;;3.63;;
19038;SDS011;9652;49.014;12.052;2023-05-07T04:57:54;4.10;;;3.73;;
19038;SDS011;9652;49.014;12.052;2023-05-07T05:00:22;4.83;;;3.67;;
19038;SDS011;9652;49.014;12.052;2023-05-07T05:02:51;3.80;;;3.40;;
19038;SDS011;9652;49.014;12.052;2023-05-07T05:05:20;3.87;;;3.30;;
19038;SDS011;9652;49.014;12.052;2023-05-07T05:07:50;3.80;;;3.40;;
19038;SDS011;9652;49.014;12.052;2023-05-07T05:10:18;5.70;;;4.20;;
19038;SDS011;9652;49.014;12.052;2023-05-07T05:12:46;3.80;;;3.40;;
19038;SDS011;9652;49.014;12.052;2023-05-07T05:15:14;5.87;;;4.07;;
19038;SDS011;9652;49.014;12.052;2023-05-07T05:17:42;7.00;;;3.90;;
19038;SDS011;9652;49.014;12.052;2023-05-07T05:20:10;5.00;;;4.17;;
19038;SDS011;9652;49.014;12.052;2023-05-07T05:22:38;4.93;;;4.20;;
19038;SDS011;9652;49.014;12.052;2023-05-07T05:25:06;4.10;;;3.70;;
19038;SDS011;9652;49.014;12.052;2023-05-07T05:27:34;7.97;;;4.20;;
19038;SDS011;9652;49.014;12.052;2023-05-07T05:30:01;6.13;;;4.37;;
19038;SDS011;9652;49.014;12.052;2023-05-07T05:32:32;5.70;;;4.30;;
19038;SDS011;9652;49.014;12.052;2023-05-07T05:34:59;8.27;;;4.67;;
19038;SDS011;9652;49.014;12.052;2023-05-07T05:37:28;7.83;;;4.83;;
19038;SDS011;9652;49.014;12.052;2023-05-07T05:39:58;5.57;;;5.00;;
19038;SDS011;9652;49.014;12.052;2023-05-07T05:42:27;5.33;;;4.83;;
19038;SDS011;9652;49.014;12.052;2023-05-07T05:44:54;5.73;;;4.93;;
19038;SDS011;9652;49.014;12.052;2023-05-07T05:47:22;6.40;;;5.10;;
19038;SDS011;9652;49.014;12.052;2023-05-07T05:49:55;6.70;;;5.13;;
19038;SDS011;9652;49.014;12.052;2023-05-07T05:52:22;5.90;;;5.00;;
19038;SDS011;9652;49.014;12.052;2023-05-07T05:54:50;5.80;;;5.03;;
19038;SDS011;9652;49.014;12.052;2023-05-07T05:57:18;5.33;;;4.67;;
19038;SDS011;9652;49.014;12.052;2023-05-07T05:59:46;5.70;;;4.70;;
19038;SDS011;9652;49.014;12.052;2023-05-07T06:02:13;6.33;;;5.27;;
19038;SDS011;9652;49.014;12.052;2023-05-07T06:04:40;5.57;;;4.43;;
19038;SDS011;9652;49.014;12.052;2023-05-07T06:07:10;5.00;;;4.50;;
19038;SDS011;9652;49.014;12.052;2023-05-07T06:09:37;5.10;;;4.23;;
19038;SDS011;9652;49.014;12.052;2023-05-07T06:12:05;7.30;;;5.30;;
19038;SDS011;9652;49.014;12.052;2023-05-07T06:14:32;5.33;;;4.70;;
19038;SDS011;9652;49.014;12.052;2023-05-07T06:16:59;5.63;;;4.50;;
19038;SDS011;9652;49.014;12.052;2023-05-07T06:19:26;4.97;;;4.10;;
19038;SDS011;9652;49.014;12.052;2023-05-07T06:21:55;5.17;;;4.53;;
19038;SDS011;9652;49.014;12.052;2023-05-07T06:24:25;5.60;;;4.37;;
19038;SDS011;9652;49.014;12.052;2023-05-07T06:26:52;5.37;;;4.30;;
19038;SDS011;9652;49.014;12.052;2023-05-07T06:29:19;5.60;;;4.40;;
19038;SDS011;9652;49.014;12.052;2023-05-07T06:31:47;5.57;;;4.67;;
19038;SDS011;9652;49.014;12.052;2023-05-07T06:34:15;4.77;;;4.27;;
19038;SDS011;9652;49.014;12.052;2023-05-07T06:36:42;5.03;;;4.27;;
19038;SDS011;9652;49.014;12.052;2023-05-07T06:39:22;4.20;;;3.80;;
19038;SDS011;9652;49.014;12.052;2023-05-07T06:41:52;4.80;;;4.37;;
19038;SDS011;9652;49.014;12.052;2023-05-07T06:44:24;4.47;;;3.80;;
19038;SDS011;9652;49.014;12.052;2023-05-07T06:47:06;4.30;;;3.77;;
19038;SDS011;9652;49.014;12.052;2023-05-07T06:49:36;5.07;;;4.57;;
19038;SDS011;9652;49.014;12.052;2023-05-07T06:52:03;4.77;;;4.20;;
19038;SDS011;9652;49.014;12.052;2023-05-07T06:54:31;5.33;;;3.67;;
19038;SDS011;9652;49.014;12.052;2023-05-07T06:57:00;4.20;;;3.80;;
19038;SDS011;9652;49.014;12.052;2023-05-07T06:59:29;4.00;;;3.60;;
19038;SDS011;9652;49.014;12.052;2023-05-07T07:01:56;5.60;;;4.20;;
19038;SDS011;9652;49.014;12.052;2023-05-07T07:04:23;8.10;;;3.90;;
19038;SDS011;9652;49.014;12.052;2023-05-07T07:06:58;7.27;;;3.83;;
19038;SDS011;9652;49.014;12.052;2023-05-07T07:09:25;5.07;;;4.10;;
19038;SDS011;9652;49.014;12.052;2023-05-07T07:11:54;5.27;;;3.87;;
19038;SDS011;9652;49.014;12.052;2023-05-07T07:14:22;5.13;;;3.90;;
19038;SDS011;9652;49.014;12.052;2023-05-07T07:16:52;6.60;;;4.53;;
19038;SDS011;9652;49.014;12.052;2023-05-07T07:19:20;6.30;;;4.50;;
19038;SDS011;9652;49.014;12.052;2023-05-07T07:21:50;4.60;;;3.90;;
19038;SDS011;9652;49.014;12.052;2023-05-07T07:24:18;4.30;;;3.90;;
19038;SDS011;9652;49.014;12.052;2023-05-07T07:26:48;4.97;;;4.23;;
19038;SDS011;9652;49.014;12.052;2023-05-07T07:29:16;4.90;;;4.17;;
19038;SDS011;9652;49.014;12.052;2023-05-07T07:31:46;6.70;;;4.47;;
19038;SDS011;9652;49.014;12.052;2023-05-07T07:34:14;5.20;;;4.07;;
19038;SDS011;9652;49.014;12.052;2023-05-07T07:36:42;4.33;;;3.80;;
19038;SDS011;9652;49.014;12.052;2023-05-07T07:39:09;4.07;;;3.67;;
19038;SDS011;9652;49.014;12.052;2023-05-07T07:41:36;4.47;;;3.83;;
19038;SDS011;9652;49.014;12.052;2023-05-07T07:44:03;4.57;;;4.10;;
19038;SDS011;9652;49.014;12.052;2023-05-07T07:46:34;4.40;;;3.73;;
19038;SDS011;9652;49.014;12.052;2023-05-07T07:49:03;4.40;;;3.80;;
19038;SDS011;9652;49.014;12.052;2023-05-07T07:51:31;4.10;;;3.70;;
19038;SDS011;9652;49.014;12.052;2023-05-07T07:53:59;4.60;;;4.07;;
19038;SDS011;9652;49.014;12.052;2023-05-07T07:56:28;5.17;;;4.00;;
19038;SDS011;9652;49.014;12.052;2023-05-07T07:58:55;5.10;;;3.90;;
19038;SDS011;9652;49.014;12.052;2023-05-07T08:01:22;4.03;;;3.57;;
19038;SDS011;9652;49.014;12.052;2023-05-07T08:03:49;5.20;;;3.77;;
19038;SDS011;9652;49.014;12.052;2023-05-07T08:06:18;4.37;;;3.80;;
19038;SDS011;9652;49.014;12.052;2023-05-07T08:08:46;4.27;;;3.47;;
19038;SDS011;9652;49.014;12.052;2023-05-07T08:11:13;4.53;;;3.57;;
19038;SDS011;9652;49.014;12.052;2023-05-07T08:13:40;4.50;;;3.60;;
19038;SDS011;9652;49.014;12.052;2023-05-07T08:16:07;5.07;;;4.03;;
19038;SDS011;9652;49.014;12.052;2023-05-07T08:18:36;4.17;;;3.77;;
19038;SDS011;9652;49.014;12.052;2023-05-07T08:21:03;4.43;;;3.67;;
19038;SDS011;9652;49.014;12.052;2023-05-07T08:23:32;7.33;;;4.10;;
19038;SDS011;9652;49.014;12.052;2023-05-07T08:26:00;4.23;;;3.80;;
19038;SDS011;9652;49.014;12.052;2023-05-07T08:28:29;4.63;;;3.40;;
19038;SDS011;9652;49.014;12.052;2023-05-07T08:30:56;3.87;;;3.43;;
19038;SDS011;9652;49.014;12.052;2023-05-07T08:33:26;6.13;;;3.60;;
19038;SDS011;9652;49.014;12.052;2023-05-07T08:35:53;4.17;;;3.60;;
19038;SDS011;9652;49.014;12.052;2023-05-07T08:38:21;4.17;;;3.60;;
19038;SDS011;9652;49.014;12.052;2023-05-07T08:40:49;3.90;;;3.50;;
19038;SDS011;9652;49.014;12.052;2023-05-07T08:43:18;4.00;;;3.60;;
19038;SDS011;9652;49.014;12.052;2023-05-07T08:45:49;3.83;;;3.43;;
19038;SDS011;9652;49.014;12.052;2023-05-07T08:48:21;3.97;;;3.20;;
19038;SDS011;9652;49.014;12.052;2023-05-07T08:50:58;4.43;;;3.40;;
19038;SDS011;9652;49.014;12.052;2023-05-07T08:53:25;3.63;;;3.03;;
19038;SDS011;9652;49.014;12.052;2023-05-07T08:55:54;4.30;;;3.30;;
19038;SDS011;9652;49.014;12.052;2023-05-07T08:58:22;2.73;;;2.43;;
19038;SDS011;9652;49.014;12.052;2023-05-07T09:00:49;4.50;;;2.50;;
19038;SDS011;9652;49.014;12.052;2023-05-07T09:03:19;4.03;;;3.30;;
19038;SDS011;9652;49.014;12.052;2023-05-07T09:05:50;3.80;;;3.20;;
19038;SDS011;9652;49.014;12.052;2023-05-07T09:08:19;3.57;;;2.70;;
19038;SDS011;9652;49.014;12.052;2023-05-07T09:10:56;4.33;;;3.60;;
19038;SDS011;9652;49.014;12.052;2023-05-07T09:13:23;3.80;;;3.40;;
19038;SDS011;9652;49.014;12.052;2023-05-07T09:15:50;4.00;;;3.60;;
19038;SDS011;9652;49.014;12.052;2023-05-07T09:18:18;3.80;;;3.30;;
19038;SDS011;9652;49.014;12.052;2023-05-07T09:20:47;3.43;;;3.10;;
19038;SDS011;9652;49.014;12.052;2023-05-07T09:23:17;2.83;;;2.30;;
19038;SDS011;9652;49.014;12.052;2023-05-07T09:25:44;2.37;;;2.17;;
19038;SDS011;9652;49.014;12.052;2023-05-07T09:28:23;3.33;;;2.70;;
19038;SDS011;9652;49.014;12.052;2023-05-07T09:30:50;4.50;;;3.03;;
19038;SDS011;9652;49.014;12.052;2023-05-07T09:33:19;3.30;;;2.50;;
19038;SDS011;9652;49.014;12.052;2023-05-07T09:35:50;2.80;;;2.43;;
19038;SDS011;9652;49.014;12.052;2023-05-07T09:38:19;3.17;;;2.73;;
19038;SDS011;9652;49.014;12.052;2023-05-07T09:41:01;3.27;;;2.73;;
19038;SDS011;9652;49.014;12.052;2023-05-07T09:43:33;3.20;;;2.90;;
19038;SDS011;9652;49.014;12.052;2023-05-07T09:46:06;2.70;;;2.40;;
19038;SDS011;9652;49.014;12.052;2023-05-07T09:48:39;3.93;;;3.30;;
19038;SDS011;9652;49.014;12.052;2023-05-07T09:51:11;4.20;;;2.90;;
19038;SDS011;9652;49.014;12.052;2023-05-07T09:53:57;4.20;;;3.13;;
19038;SDS011;9652;49.014;12.052;2023-05-07T09:56:26;3.53;;;2.80;;
19038;SDS011;9652;49.014;12.052;2023-05-07T09:58:57;4.27;;;3.20;;
19038;SDS011;9652;49.014;12.052;2023-05-07T10:01:30;4.57;;;3.23;;
19038;SDS011;9652;49.014;12.052;2023-05-07T10:04:01;4.07;;;3.03;;
19038;SDS011;9652;49.014;12.052;2023-05-07T10:06:30;3.27;;;2.83;;
19038;SDS011;9652;49.014;12.052;2023-05-07T10:08:59;4.07;;;2.80;;
19038;SDS011;9652;49.014;12.052;2023-05-07T10:11:26;3.20;;;2.90;;
19038;SDS011;9652;49.014;12.052;2023-05-07T10:13:54;7.93;;;3.20;;
19038;SDS011;9652;49.014;12.052;2023-05-07T10:16:23;2.97;;;2.77;;
19038;SDS011;9652;49.014;12.052;2023-05-07T10:18:53;4.07;;;3.07;;
19038;SDS011;9652;49.014;12.052;2023-05-07T10:21:23;3.80;;;3.40;;
19038;SDS011;9652;49.014;12.052;2023-05-07T10:23:59;4.17;;;3.57;;
19038;SDS011;9652;49.014;12.052;2023-05-07T10:26:34;5.33;;;3.60;;
19038;SDS011;9652;49.014;12.052;2023-05-07T10:29:04;3.70;;;3.30;;
19038;SDS011;9652;49.014;12.052;2023-05-07T10:31:44;8.43;;;3.30;;
19038;SDS011;9652;49.014;12.052;2023-05-07T10:34:22;4.13;;;3.47;;
19038;SDS011;9652;49.014;12.052;2023-05-07T10:36:54;4.70;;;3.27;;
19038;SDS011;9652;49.014;12.052;2023-05-07T10:39:24;4.50;;;3.20;;
19038;SDS011;9652;49.014;12.052;2023-05-07T10:41:54;3.00;;;2.70;;
19038;SDS011;9652;49.014;12.052;2023-05-07T10:44:25;3.13;;;2.80;;
19038;SDS011;9652;49.014;12.052;2023-05-07T10:47:04;4.67;;;3.07;;
19038;SDS011;9652;49.014;12.052;2023-05-07T10:49:36;3.90;;;2.80;;
19038;SDS011;9652;49.014;12.052;2023-05-07T10:52:29;4.67;;;2.93;;
19038;SDS011;9652;49.014;12.052;2023-05-07T10:55:19;3.37;;;2.83;;
19038;SDS011;9652;49.014;12.052;2023-05-07T10:58:02;3.50;;;2.83;;
19038;SDS011;9652;49.014;12.052;2023-05-07T11:00:56;5.27;;;3.70;;
19038;SDS011;9652;49.014;12.052;2023-05-07T11:03:32;3.67;;;3.27;;
19038;SDS011;9652;49.014;12.052;2023-05-07T11:06:11;3.70;;;2.97;;
19038;SDS011;9652;49.014;12.052;2023-05-07T11:09:06;3.60;;;3.17;;
19038;SDS011;9652;49.014;12.052;2023-05-07T11:11:44;3.00;;;2.70;;
19038;SDS011;9652;49.014;12.052;2023-05-07T11:17:20;4.10;;;3.07;;
19038;SDS011;9652;49.014;12.052;2023-05-07T11:19:56;3.60;;;2.97;;
19038;SDS011;9652;49.014;12.052;2023-05-07T11:22:46;3.80;;;2.83;;
19038;SDS011;9652;49.014;12.052;2023-05-07T11:25:45;3.50;;;2.70;;
19038;SDS011;9652;49.014;12.052;2023-05-07T11:28:18;2.97;;;2.67;;
19038;SDS011;9652;49.014;12.052;2023-05-07T11:30:54;3.40;;;3.00;;
19038;SDS011;9652;49.014;12.052;2023-05-07T11:33:24;5.53;;;3.07;;
19038;SDS011;9652;49.014;12.052;2023-05-07T11:35:55;5.17;;;2.40;;
19038;SDS011;9652;49.014;12.052;2023-05-07T11:38:29;3.43;;;2.77;;
19038;SDS011;9652;49.014;12.052;2023-05-07T11:41:00;3.40;;;2.40;;
19038;SDS011;9652;49.014;12.052;2023-05-07T11:43:29;4.63;;;2.77;;
19038;SDS011;9652;49.014;12.052;2023-05-07T11:46:04;3.33;;;2.30;;
19038;SDS011;9652;49.014;12.052;2023-05-07T11:48:34;3.20;;;2.87;;
19038;SDS011;9652;49.014;12.052;2023-05-07T11:51:03;3.20;;;2.30;;
19038;SDS011;9652;49.014;12.052;2023-05-07T11:53:37;4.40;;;2.77;;
19038;SDS011;9652;49.014;12.052;2023-05-07T11:56:09;3.40;;;3.10;;
19038;SDS011;9652;49.014;12.052;2023-05-07T11:58:38;4.67;;;3.03;;
19038;SDS011;9652;49.014;12.052;2023-05-07T12:01:07;2.90;;;2.60;;
19038;SDS011;9652;49.014;12.052;2023-05-07T12:03:35;3.80;;;3.17;;
19038;SDS011;9652;49.014;12.052;2023-05-07T12:06:06;3.20;;;2.90;;
19038;SDS011;9652;49.014;12.052;2023-05-07T12:08:35;3.57;;;2.77;;
19038;SDS011;9652;49.014;12.052;2023-05-07T12:11:04;3.10;;;2.80;;
19038;SDS011;9652;49.014;12.052;2023-05-07T12:13:36;2.97;;;2.67;;
19038;SDS011;9652;49.014;12.052;2023-05-07T12:16:05;3.90;;;2.70;;
19038;SDS011;9652;49.014;12.052;2023-05-07T12:18:33;3.10;;;2.67;;
19038;SDS011;9652;49.014;12.052;2023-05-07T12:21:03;4.07;;;2.80;;
19038;SDS011;9652;49.014;12.052;2023-05-07T12:23:33;2.67;;;2.43;;
19038;SDS011;9652;49.014;12.052;2023-05-07T12:26:02;2.90;;;2.30;;
19038;SDS011;9652;49.014;12.052;2023-05-07T12:28:31;3.87;;;2.43;;
19038;SDS011;9652;49.014;12.052;2023-05-07T12:31:03;2.73;;;2.20;;
19038;SDS011;9652;49.014;12.052;2023-05-07T12:33:31;3.53;;;3.17;;
19038;SDS011;9652;49.014;12.052;2023-05-07T12:36:02;3.20;;;2.80;;
19038;SDS011;9652;49.014;12.052;2023-05-07T12:38:34;3.20;;;2.60;;
19038;SDS011;9652;49.014;12.052;2023-05-07T12:41:03;4.10;;;2.70;;
19038;SDS011;9652;49.014;12.052;2023-05-07T12:43:32;3.77;;;2.40;;
19038;SDS011;9652;49.014;12.052;2023-05-07T12:46:00;2.73;;;2.33;;
19038;SDS011;9652;49.014;12.052;2023-05-07T12:48:30;4.40;;;2.50;;
19038;SDS011;9652;49.014;12.052;2023-05-07T12:50:59;2.30;;;2.10;;
19038;SDS011;9652;49.014;12.052;2023-05-07T12:53:30;2.23;;;2.03;;
19038;SDS011;9652;49.014;12.052;2023-05-07T12:55:58;2.20;;;2.00;;
19038;SDS011;9652;49.014;12.052;2023-05-07T12:58:26;2.93;;;2.10;;
19038;SDS011;9652;49.014;12.052;2023-05-07T13:00:56;2.03;;;1.73;;
19038;SDS011;9652;49.014;12.052;2023-05-07T13:03:26;2.63;;;2.43;;
19038;SDS011;9652;49.014;12.052;2023-05-07T13:05:55;2.40;;;2.20;;
19038;SDS011;9652;49.014;12.052;2023-05-07T13:08:25;2.77;;;2.33;;
19038;SDS011;9652;49.014;12.052;2023-05-07T13:10:57;2.27;;;2.07;;
19038;SDS011;9652;49.014;12.052;2023-05-07T13:13:28;2.78;;;2.15;;
19038;SDS011;9652;49.014;12.052;2023-05-07T13:15:55;2.00;;;1.80;;
19038;SDS011;9652;49.014;12.052;2023-05-07T13:18:23;2.30;;;2.00;;
19038;SDS011;9652;49.014;12.052;2023-05-07T13:20:51;2.35;;;2.13;;
19038;SDS011;9652;49.014;12.052;2023-05-07T13:23:19;2.45;;;1.80;;
19038;SDS011;9652;49.014;12.052;2023-05-07T13:25:47;2.15;;;1.70;;
19038;SDS011;9652;49.014;12.052;2023-05-07T13:28:16;1.92;;;1.80;;
19038;SDS011;9652;49.014;12.052;2023-05-07T13:30:43;1.65;;;1.55;;
19038;SDS011;9652;49.014;12.052;2023-05-07T13:33:10;2.10;;;1.70;;
19038;SDS011;9652;49.014;12.052;2023-05-07T13:35:37;2.40;;;2.00;;
19038;SDS011;9652;49.014;12.052;2023-05-07T13:38:05;2.15;;;1.80;;
19038;SDS011;9652;49.014;12.052;2023-05-07T13:40:32;1.65;;;1.55;;
19038;SDS011;9652;49.014;12.052;2023-05-07T13:43:00;1.70;;;1.50;;
19038;SDS011;9652;49.014;12.052;2023-05-07T13:45:28;1.67;;;1.55;;
19038;SDS011;9652;49.014;12.052;2023-05-07T13:47:55;1.88;;;1.70;;
19038;SDS011;9652;49.014;12.052;2023-05-07T13:50:23;1.90;;;1.80;;
19038;SDS011;9652;49.014;12.052;2023-05-07T13:52:52;2.17;;;1.80;;
19038;SDS011;9652;49.014;12.052;2023-05-07T13:55:19;2.65;;;1.77;;
19038;SDS011;9652;49.014;12.052;2023-05-07T13:57:53;2.17;;;1.63;;
19038;SDS011;9652;49.014;12.052;2023-05-07T14:00:24;1.65;;;1.48;;
19038;SDS011;9652;49.014;12.052;2023-05-07T14:02:52;2.28;;;1.55;;
19038;SDS011;9652;49.014;12.052;2023-05-07T14:05:19;1.42;;;1.33;;
19038;SDS011;9652;49.014;12.052;2023-05-07T14:07:48;1.77;;;1.40;;
19038;SDS011;9652;49.014;12.052;2023-05-07T14:10:16;2.25;;;1.40;;
19038;SDS011;9652;49.014;12.052;2023-05-07T14:12:44;1.55;;;1.45;;
19038;SDS011;9652;49.014;12.052;2023-05-07T14:15:13;1.60;;;1.50;;
19038;SDS011;9652;49.014;12.052;2023-05-07T14:17:42;1.50;;;1.40;;
19038;SDS011;9652;49.014;12.052;2023-05-07T14:20:10;1.55;;;1.13;;
19038;SDS011;9652;49.014;12.052;2023-05-07T14:22:38;1.52;;;1.33;;
19038;SDS011;9652;49.014;12.052;2023-05-07T14:25:06;1.20;;;1.10;;
19038;SDS011;9652;49.014;12.052;2023-05-07T14:27:35;1.30;;;1.20;;
19038;SDS011;9652;49.014;12.052;2023-05-07T14:30:03;1.70;;;1.30;;
19038;SDS011;9652;49.014;12.052;2023-05-07T14:32:31;1.70;;;1.60;;
19038;SDS011;9652;49.014;12.052;2023-05-07T14:35:00;1.88;;;1.50;;
19038;SDS011;9652;49.014;12.052;2023-05-07T14:37:27;2.30;;;1.70;;
19038;SDS011;9652;49.014;12.052;2023-05-07T14:39:54;3.53;;;1.48;;
19038;SDS011;9652;49.014;12.052;2023-05-07T14:42:21;1.90;;;1.75;;
19038;SDS011;9652;49.014;12.052;2023-05-07T14:44:48;1.35;;;1.25;;
19038;SDS011;9652;49.014;12.052;2023-05-07T14:47:15;2.47;;;1.52;;
19038;SDS011;9652;49.014;12.052;2023-05-07T14:49:42;2.10;;;1.48;;
19038;SDS011;9652;49.014;12.052;2023-05-07T14:52:10;3.22;;;1.60;;
19038;SDS011;9652;49.014;12.052;2023-05-07T14:54:38;2.08;;;1.83;;
19038;SDS011;9652;49.014;12.052;2023-05-07T14:57:05;1.30;;;1.20;;
19038;SDS011;9652;49.014;12.052;2023-05-07T14:59:35;1.85;;;1.30;;
19038;SDS011;9652;49.014;12.052;2023-05-07T15:02:03;1.23;;;1.17;;
19038;SDS011;9652;49.014;12.052;2023-05-07T15:04:32;2.22;;;1.55;;
19038;SDS011;9652;49.014;12.052;2023-05-07T15:07:00;1.40;;;1.30;;